sensor_id;sensor_type;location;lat;lon;timestamp;P1;durP1;ratioP1;P2;durP2;ratioP2
77022;SDS011;65952;51.440;-2.054;2023-11-18T00:00:47;11.13;;;4.07;;
77022;SDS011;65952;51.440;-2.054;2023-11-18T00:03:13;12.40;;;3.60;;
77022;SDS011;65952;51.440;-2.054;2023-11-18T00:05:38;12.32;;;4.25;;
77022;SDS011;65952;51.440;-2.054;2023-11-18T00:08:03;7.78;;;3.60;;
77022;SDS011;65952;51.440;-2.054;2023-11-18T00:10:29;9.00;;;3.70;;
77022;SDS011;65952;51.440;-2.054;2023-11-18T00:12:54;10.85;;;4.22;;
77022;SDS011;65952;51.440;-2.054;2023-11-18T00:15:20;7.80;;;3.75;;
77022;SDS011;65952;51.440;-2.054;2023-11-18T00:17:45;8.98;;;4.13;;
77022;SDS011;65952;51.440;-2.054;2023-11-18T00:20:11;6.80;;;4.05;;
77022;SDS011;65952;51.440;-2.054;2023-11-18T00:22:38;8.20;;;3.80;;
77022;SDS011;65952;51.440;-2.054;2023-11-18T00:25:05;6.95;;;3.47;;
77022;SDS011;65952;51.440;-2.054;2023-11-18T00:27:32;8.30;;;3.72;;
77022;SDS011;65952;51.440;-2.054;2023-11-18T00:30:00;8.82;;;4.45;;
77022;SDS011;65952;51.440;-2.054;2023-11-18T00:32:27;9.02;;;4.13;;
77022;SDS011;65952;51.440;-2.054;2023-11-18T00:34:52;7.32;;;4.00;;
77022;SDS011;65952;51.440;-2.054;2023-11-18T00:37:17;7.63;;;3.95;;
77022;SDS011;65952;51.440;-2.054;2023-11-18T00:39:43;6.20;;;3.95;;
77022;SDS011;65952;51.440;-2.054;2023-11-18T00:42:08;7.43;;;3.92;;
77022;SDS011;65952;51.440;-2.054;2023-11-18T00:44:34;7.95;;;3.88;;
77022;SDS011;65952;51.440;-2.054;2023-11-18T00:47:00;8.23;;;3.92;;
77022;SDS011;65952;51.440;-2.054;2023-11-18T00:49:25;8.38;;;3.63;;
77022;SDS011;65952;51.440;-2.054;2023-11-18T00:51:51;8.20;;;3.70;;
77022;SDS011;65952;51.440;-2.054;2023-11-18T00:54:16;8.57;;;3.50;;
77022;SDS011;65952;51.440;-2.054;2023-11-18T00:56:42;6.57;;;3.45;;
77022;SDS011;65952;51.440;-2.054;2023-11-18T00:59:07;5.80;;;2.90;;
77022;SDS011;65952;51.440;-2.054;2023-11-18T01:01:33;5.63;;;2.88;;
77022;SDS011;65952;51.440;-2.054;2023-11-18T01:03:58;6.05;;;2.80;;
77022;SDS011;65952;51.440;-2.054;2023-11-18T01:06:24;7.07;;;2.78;;
77022;SDS011;65952;51.440;-2.054;2023-11-18T01:08:51;5.05;;;2.72;;
77022;SDS011;65952;51.440;-2.054;2023-11-18T01:11:16;4.65;;;2.50;;
77022;SDS011;65952;51.440;-2.054;2023-11-18T01:13:46;4.70;;;2.60;;
77022;SDS011;65952;51.440;-2.054;2023-11-18T01:16:11;5.05;;;2.58;;
77022;SDS011;65952;51.440;-2.054;2023-11-18T01:18:38;4.60;;;2.22;;
77022;SDS011;65952;51.440;-2.054;2023-11-18T01:21:04;3.70;;;2.20;;
77022;SDS011;65952;51.440;-2.054;2023-11-18T01:23:30;4.40;;;2.20;;
77022;SDS011;65952;51.440;-2.054;2023-11-18T01:25:55;3.88;;;2.15;;
77022;SDS011;65952;51.440;-2.054;2023-11-18T01:28:22;3.65;;;2.00;;
77022;SDS011;65952;51.440;-2.054;2023-11-18T01:30:49;5.82;;;2.08;;
77022;SDS011;65952;51.440;-2.054;2023-11-18T01:33:15;4.70;;;2.17;;
77022;SDS011;65952;51.440;-2.054;2023-11-18T01:35:40;4.45;;;1.90;;
77022;SDS011;65952;51.440;-2.054;2023-11-18T01:38:06;4.32;;;2.00;;
77022;SDS011;65952;51.440;-2.054;2023-11-18T01:40:32;4.28;;;1.90;;
77022;SDS011;65952;51.440;-2.054;2023-11-18T01:42:58;2.95;;;1.70;;
77022;SDS011;65952;51.440;-2.054;2023-11-18T01:45:23;4.22;;;1.80;;
77022;SDS011;65952;51.440;-2.054;2023-11-18T01:47:51;5.82;;;1.90;;
77022;SDS011;65952;51.440;-2.054;2023-11-18T01:50:18;3.45;;;1.80;;
77022;SDS011;65952;51.440;-2.054;2023-11-18T01:52:44;3.90;;;1.88;;
77022;SDS011;65952;51.440;-2.054;2023-11-18T01:55:10;2.80;;;1.70;;
77022;SDS011;65952;51.440;-2.054;2023-11-18T01:57:38;3.00;;;1.65;;
77022;SDS011;65952;51.440;-2.054;2023-11-18T02:00:05;2.40;;;1.50;;
77022;SDS011;65952;51.440;-2.054;2023-11-18T02:02:32;2.88;;;1.60;;
77022;SDS011;65952;51.440;-2.054;2023-11-18T02:05:00;3.50;;;2.20;;
77022;SDS011;65952;51.440;-2.054;2023-11-18T02:07:27;2.90;;;1.60;;
77022;SDS011;65952;51.440;-2.054;2023-11-18T02:09:54;4.20;;;1.70;;
77022;SDS011;65952;51.440;-2.054;2023-11-18T02:12:25;3.08;;;1.50;;
77022;SDS011;65952;51.440;-2.054;2023-11-18T02:14:59;3.10;;;1.60;;
77022;SDS011;65952;51.440;-2.054;2023-11-18T02:17:26;3.65;;;1.60;;
77022;SDS011;65952;51.440;-2.054;2023-11-18T02:19:54;3.33;;;1.60;;
77022;SDS011;65952;51.440;-2.054;2023-11-18T02:22:21;4.00;;;1.58;;
77022;SDS011;65952;51.440;-2.054;2023-11-18T02:24:47;3.42;;;1.50;;
77022;SDS011;65952;51.440;-2.054;2023-11-18T02:27:13;3.83;;;1.67;;
77022;SDS011;65952;51.440;-2.054;2023-11-18T02:29:40;2.92;;;1.60;;
77022;SDS011;65952;51.440;-2.054;2023-11-18T02:35:10;4.10;;;1.60;;
77022;SDS011;65952;51.440;-2.054;2023-11-18T02:37:43;2.88;;;1.55;;
77022;SDS011;65952;51.440;-2.054;2023-11-18T02:40:12;2.20;;;1.50;;
77022;SDS011;65952;51.440;-2.054;2023-11-18T02:42:55;2.40;;;1.70;;
77022;SDS011;65952;51.440;-2.054;2023-11-18T02:45:24;2.65;;;1.48;;
77022;SDS011;65952;51.440;-2.054;2023-11-18T02:47:49;1.98;;;1.50;;
77022;SDS011;65952;51.440;-2.054;2023-11-18T02:50:15;2.33;;;1.40;;
77022;SDS011;65952;51.440;-2.054;2023-11-18T02:52:40;2.72;;;1.50;;
77022;SDS011;65952;51.440;-2.054;2023-11-18T02:55:06;2.90;;;1.35;;
77022;SDS011;65952;51.440;-2.054;2023-11-18T02:57:33;2.03;;;1.30;;
77022;SDS011;65952;51.440;-2.054;2023-11-18T02:59:59;2.15;;;1.33;;
77022;SDS011;65952;51.440;-2.054;2023-11-18T03:02:29;2.78;;;1.40;;
77022;SDS011;65952;51.440;-2.054;2023-11-18T03:04:56;2.60;;;1.35;;
77022;SDS011;65952;51.440;-2.054;2023-11-18T03:07:22;1.80;;;1.33;;
77022;SDS011;65952;51.440;-2.054;2023-11-18T03:09:47;3.13;;;1.30;;
77022;SDS011;65952;51.440;-2.054;2023-11-18T03:12:13;1.80;;;1.30;;
77022;SDS011;65952;51.440;-2.054;2023-11-18T03:14:39;1.77;;;1.30;;
77022;SDS011;65952;51.440;-2.054;2023-11-18T03:17:04;1.92;;;1.30;;
77022;SDS011;65952;51.440;-2.054;2023-11-18T03:19:35;1.35;;;1.20;;
77022;SDS011;65952;51.440;-2.054;2023-11-18T03:22:01;1.63;;;1.30;;
77022;SDS011;65952;51.440;-2.054;2023-11-18T03:24:27;1.40;;;1.25;;
77022;SDS011;65952;51.440;-2.054;2023-11-18T03:26:56;1.40;;;1.30;;
77022;SDS011;65952;51.440;-2.054;2023-11-18T03:29:21;2.08;;;1.38;;
77022;SDS011;65952;51.440;-2.054;2023-11-18T03:31:48;3.80;;;1.40;;
77022;SDS011;65952;51.440;-2.054;2023-11-18T03:34:14;1.42;;;1.20;;
77022;SDS011;65952;51.440;-2.054;2023-11-18T03:36:48;1.42;;;1.30;;
77022;SDS011;65952;51.440;-2.054;2023-11-18T03:39:13;2.35;;;1.23;;
77022;SDS011;65952;51.440;-2.054;2023-11-18T03:41:39;1.58;;;1.30;;
77022;SDS011;65952;51.440;-2.054;2023-11-18T03:44:05;1.30;;;1.20;;
77022;SDS011;65952;51.440;-2.054;2023-11-18T03:46:31;1.38;;;1.27;;
77022;SDS011;65952;51.440;-2.054;2023-11-18T03:48:59;1.80;;;1.38;;
77022;SDS011;65952;51.440;-2.054;2023-11-18T03:51:25;2.53;;;1.35;;
77022;SDS011;65952;51.440;-2.054;2023-11-18T03:53:51;1.30;;;1.20;;
77022;SDS011;65952;51.440;-2.054;2023-11-18T03:56:16;1.55;;;1.30;;
77022;SDS011;65952;51.440;-2.054;2023-11-18T03:58:43;1.80;;;1.30;;
77022;SDS011;65952;51.440;-2.054;2023-11-18T04:01:09;1.30;;;1.20;;
77022;SDS011;65952;51.440;-2.054;2023-11-18T04:03:36;1.45;;;1.30;;
77022;SDS011;65952;51.440;-2.054;2023-11-18T04:06:01;1.48;;;1.20;;
77022;SDS011;65952;51.440;-2.054;2023-11-18T04:08:28;1.90;;;1.40;;
77022;SDS011;65952;51.440;-2.054;2023-11-18T04:10:54;2.15;;;1.30;;
77022;SDS011;65952;51.440;-2.054;2023-11-18T04:13:19;1.77;;;1.30;;
77022;SDS011;65952;51.440;-2.054;2023-11-18T04:15:44;1.77;;;1.30;;
77022;SDS011;65952;51.440;-2.054;2023-11-18T04:18:10;2.13;;;1.40;;
77022;SDS011;65952;51.440;-2.054;2023-11-18T04:20:35;1.67;;;1.30;;
77022;SDS011;65952;51.440;-2.054;2023-11-18T04:23:01;1.73;;;1.35;;
77022;SDS011;65952;51.440;-2.054;2023-11-18T04:25:27;3.08;;;1.30;;
77022;SDS011;65952;51.440;-2.054;2023-11-18T04:27:53;1.98;;;1.30;;
77022;SDS011;65952;51.440;-2.054;2023-11-18T04:30:18;1.40;;;1.30;;
77022;SDS011;65952;51.440;-2.054;2023-11-18T04:32:44;1.65;;;1.30;;
77022;SDS011;65952;51.440;-2.054;2023-11-18T04:35:09;2.00;;;1.30;;
77022;SDS011;65952;51.440;-2.054;2023-11-18T04:37:36;2.00;;;1.40;;
77022;SDS011;65952;51.440;-2.054;2023-11-18T04:40:03;1.83;;;1.30;;
77022;SDS011;65952;51.440;-2.054;2023-11-18T04:42:29;3.00;;;1.40;;
77022;SDS011;65952;51.440;-2.054;2023-11-18T04:44:55;3.13;;;1.50;;
77022;SDS011;65952;51.440;-2.054;2023-11-18T04:47:21;2.50;;;1.40;;
77022;SDS011;65952;51.440;-2.054;2023-11-18T04:49:47;4.63;;;2.05;;
77022;SDS011;65952;51.440;-2.054;2023-11-18T04:52:12;1.83;;;1.30;;
77022;SDS011;65952;51.440;-2.054;2023-11-18T04:54:37;1.75;;;1.30;;
77022;SDS011;65952;51.440;-2.054;2023-11-18T04:57:03;1.75;;;1.40;;
77022;SDS011;65952;51.440;-2.054;2023-11-18T04:59:28;2.00;;;1.30;;
77022;SDS011;65952;51.440;-2.054;2023-11-18T05:01:55;2.28;;;1.70;;
77022;SDS011;65952;51.440;-2.054;2023-11-18T05:04:21;2.25;;;1.30;;
77022;SDS011;65952;51.440;-2.054;2023-11-18T05:06:46;2.38;;;1.40;;
77022;SDS011;65952;51.440;-2.054;2023-11-18T05:09:12;4.80;;;1.50;;
77022;SDS011;65952;51.440;-2.054;2023-11-18T05:11:37;2.20;;;1.50;;
77022;SDS011;65952;51.440;-2.054;2023-11-18T05:14:03;2.10;;;1.50;;
77022;SDS011;65952;51.440;-2.054;2023-11-18T05:16:29;2.00;;;1.30;;
77022;SDS011;65952;51.440;-2.054;2023-11-18T05:18:55;2.20;;;1.40;;
77022;SDS011;65952;51.440;-2.054;2023-11-18T05:21:20;2.42;;;1.63;;
77022;SDS011;65952;51.440;-2.054;2023-11-18T05:23:46;1.98;;;1.40;;
77022;SDS011;65952;51.440;-2.054;2023-11-18T05:26:12;2.53;;;1.50;;
77022;SDS011;65952;51.440;-2.054;2023-11-18T05:28:37;2.63;;;1.50;;
77022;SDS011;65952;51.440;-2.054;2023-11-18T05:31:03;3.00;;;1.50;;
77022;SDS011;65952;51.440;-2.054;2023-11-18T05:33:30;2.38;;;1.50;;
77022;SDS011;65952;51.440;-2.054;2023-11-18T05:35:56;2.58;;;1.63;;
77022;SDS011;65952;51.440;-2.054;2023-11-18T05:38:22;2.75;;;1.58;;
77022;SDS011;65952;51.440;-2.054;2023-11-18T05:40:49;2.97;;;1.70;;
77022;SDS011;65952;51.440;-2.054;2023-11-18T05:43:24;2.65;;;1.58;;
77022;SDS011;65952;51.440;-2.054;2023-11-18T05:45:54;2.70;;;1.50;;
77022;SDS011;65952;51.440;-2.054;2023-11-18T05:48:38;2.85;;;1.60;;
77022;SDS011;65952;51.440;-2.054;2023-11-18T05:51:03;3.03;;;1.70;;
77022;SDS011;65952;51.440;-2.054;2023-11-18T05:53:30;4.30;;;1.80;;
77022;SDS011;65952;51.440;-2.054;2023-11-18T05:55:56;2.60;;;1.60;;
77022;SDS011;65952;51.440;-2.054;2023-11-18T05:58:21;2.83;;;1.52;;
77022;SDS011;65952;51.440;-2.054;2023-11-18T06:00:47;2.33;;;1.58;;
77022;SDS011;65952;51.440;-2.054;2023-11-18T06:03:12;3.45;;;1.70;;
77022;SDS011;65952;51.440;-2.054;2023-11-18T06:05:37;2.95;;;1.50;;
77022;SDS011;65952;51.440;-2.054;2023-11-18T06:08:03;2.30;;;1.50;;
77022;SDS011;65952;51.440;-2.054;2023-11-18T06:10:29;3.08;;;1.52;;
77022;SDS011;65952;51.440;-2.054;2023-11-18T06:12:57;3.35;;;1.80;;
77022;SDS011;65952;51.440;-2.054;2023-11-18T06:15:23;4.40;;;1.60;;
77022;SDS011;65952;51.440;-2.054;2023-11-18T06:17:49;2.70;;;1.58;;
77022;SDS011;65952;51.440;-2.054;2023-11-18T06:20:14;2.85;;;1.58;;
77022;SDS011;65952;51.440;-2.054;2023-11-18T06:22:42;2.17;;;1.40;;
77022;SDS011;65952;51.440;-2.054;2023-11-18T06:25:07;3.05;;;1.55;;
77022;SDS011;65952;51.440;-2.054;2023-11-18T06:27:34;6.18;;;1.63;;
77022;SDS011;65952;51.440;-2.054;2023-11-18T06:29:59;2.35;;;1.45;;
77022;SDS011;65952;51.440;-2.054;2023-11-18T06:32:25;2.63;;;1.50;;
77022;SDS011;65952;51.440;-2.054;2023-11-18T06:34:53;2.42;;;1.50;;
77022;SDS011;65952;51.440;-2.054;2023-11-18T06:37:19;2.50;;;1.45;;
77022;SDS011;65952;51.440;-2.054;2023-11-18T06:39:44;2.92;;;1.58;;
77022;SDS011;65952;51.440;-2.054;2023-11-18T06:42:12;2.65;;;1.50;;
77022;SDS011;65952;51.440;-2.054;2023-11-18T06:44:39;2.22;;;1.38;;
77022;SDS011;65952;51.440;-2.054;2023-11-18T06:47:05;4.05;;;1.65;;
77022;SDS011;65952;51.440;-2.054;2023-11-18T06:49:31;2.25;;;1.42;;
77022;SDS011;65952;51.440;-2.054;2023-11-18T06:51:59;2.33;;;1.50;;
77022;SDS011;65952;51.440;-2.054;2023-11-18T06:54:28;2.47;;;1.45;;
77022;SDS011;65952;51.440;-2.054;2023-11-18T06:56:55;2.97;;;1.50;;
77022;SDS011;65952;51.440;-2.054;2023-11-18T06:59:21;3.22;;;1.70;;
77022;SDS011;65952;51.440;-2.054;2023-11-18T07:01:46;3.08;;;1.70;;
77022;SDS011;65952;51.440;-2.054;2023-11-18T07:04:12;3.35;;;1.65;;
77022;SDS011;65952;51.440;-2.054;2023-11-18T07:06:39;3.50;;;1.60;;
77022;SDS011;65952;51.440;-2.054;2023-11-18T07:09:08;3.20;;;1.70;;
77022;SDS011;65952;51.440;-2.054;2023-11-18T07:11:38;2.28;;;1.50;;
77022;SDS011;65952;51.440;-2.054;2023-11-18T07:14:05;3.28;;;1.70;;
77022;SDS011;65952;51.440;-2.054;2023-11-18T07:16:34;3.20;;;1.70;;
77022;SDS011;65952;51.440;-2.054;2023-11-18T07:18:59;4.20;;;1.80;;
77022;SDS011;65952;51.440;-2.054;2023-11-18T07:21:25;3.22;;;1.70;;
77022;SDS011;65952;51.440;-2.054;2023-11-18T07:23:50;2.67;;;1.60;;
77022;SDS011;65952;51.440;-2.054;2023-11-18T07:26:16;2.70;;;1.60;;
77022;SDS011;65952;51.440;-2.054;2023-11-18T07:28:41;3.58;;;1.63;;
77022;SDS011;65952;51.440;-2.054;2023-11-18T07:31:08;3.15;;;1.80;;
77022;SDS011;65952;51.440;-2.054;2023-11-18T07:33:34;2.50;;;1.58;;
77022;SDS011;65952;51.440;-2.054;2023-11-18T07:35:59;3.33;;;1.90;;
77022;SDS011;65952;51.440;-2.054;2023-11-18T07:38:25;3.05;;;1.60;;
77022;SDS011;65952;51.440;-2.054;2023-11-18T07:40:52;3.13;;;1.67;;
77022;SDS011;65952;51.440;-2.054;2023-11-18T07:43:21;2.65;;;1.65;;
77022;SDS011;65952;51.440;-2.054;2023-11-18T07:45:47;3.47;;;1.67;;
77022;SDS011;65952;51.440;-2.054;2023-11-18T07:48:18;4.47;;;2.63;;
77022;SDS011;65952;51.440;-2.054;2023-11-18T07:50:45;4.90;;;1.90;;
77022;SDS011;65952;51.440;-2.054;2023-11-18T07:53:12;4.15;;;1.95;;
77022;SDS011;65952;51.440;-2.054;2023-11-18T07:55:39;6.38;;;2.30;;
77022;SDS011;65952;51.440;-2.054;2023-11-18T07:58:05;6.88;;;2.30;;
77022;SDS011;65952;51.440;-2.054;2023-11-18T08:00:40;5.97;;;2.42;;
77022;SDS011;65952;51.440;-2.054;2023-11-18T08:03:07;4.75;;;2.35;;
77022;SDS011;65952;51.440;-2.054;2023-11-18T08:05:43;5.43;;;2.67;;
77022;SDS011;65952;51.440;-2.054;2023-11-18T08:08:10;5.60;;;2.72;;
77022;SDS011;65952;51.440;-2.054;2023-11-18T08:10:36;4.50;;;2.47;;
77022;SDS011;65952;51.440;-2.054;2023-11-18T08:13:06;7.30;;;2.90;;
77022;SDS011;65952;51.440;-2.054;2023-11-18T08:15:42;6.10;;;2.65;;
77022;SDS011;65952;51.440;-2.054;2023-11-18T08:18:10;6.97;;;2.80;;
77022;SDS011;65952;51.440;-2.054;2023-11-18T08:20:36;6.47;;;2.83;;
77022;SDS011;65952;51.440;-2.054;2023-11-18T08:23:02;9.63;;;2.80;;
77022;SDS011;65952;51.440;-2.054;2023-11-18T08:25:29;5.35;;;2.95;;
77022;SDS011;65952;51.440;-2.054;2023-11-18T08:27:58;5.90;;;2.70;;
77022;SDS011;65952;51.440;-2.054;2023-11-18T08:30:25;5.10;;;2.60;;
77022;SDS011;65952;51.440;-2.054;2023-11-18T08:32:51;6.93;;;2.55;;
77022;SDS011;65952;51.440;-2.054;2023-11-18T08:35:17;7.45;;;2.72;;
77022;SDS011;65952;51.440;-2.054;2023-11-18T08:37:42;5.88;;;2.45;;
77022;SDS011;65952;51.440;-2.054;2023-11-18T08:40:09;8.32;;;3.00;;
77022;SDS011;65952;51.440;-2.054;2023-11-18T08:42:43;7.00;;;2.85;;
77022;SDS011;65952;51.440;-2.054;2023-11-18T08:45:18;8.00;;;2.40;;
77022;SDS011;65952;51.440;-2.054;2023-11-18T08:47:52;6.72;;;2.35;;
77022;SDS011;65952;51.440;-2.054;2023-11-18T08:50:18;7.68;;;2.60;;
77022;SDS011;65952;51.440;-2.054;2023-11-18T08:52:44;6.38;;;2.40;;
77022;SDS011;65952;51.440;-2.054;2023-11-18T08:55:14;3.90;;;2.15;;
77022;SDS011;65952;51.440;-2.054;2023-11-18T08:57:48;8.00;;;2.40;;
77022;SDS011;65952;51.440;-2.054;2023-11-18T09:00:31;8.20;;;2.90;;
77022;SDS011;65952;51.440;-2.054;2023-11-18T09:03:12;6.95;;;2.40;;
77022;SDS011;65952;51.440;-2.054;2023-11-18T09:06:05;7.63;;;2.63;;
77022;SDS011;65952;51.440;-2.054;2023-11-18T09:08:42;5.97;;;2.40;;
77022;SDS011;65952;51.440;-2.054;2023-11-18T09:11:08;4.50;;;2.42;;
77022;SDS011;65952;51.440;-2.054;2023-11-18T09:13:36;5.50;;;2.45;;
77022;SDS011;65952;51.440;-2.054;2023-11-18T09:16:02;7.28;;;2.25;;
77022;SDS011;65952;51.440;-2.054;2023-11-18T09:18:38;6.13;;;2.63;;
77022;SDS011;65952;51.440;-2.054;2023-11-18T09:21:05;5.15;;;2.25;;
77022;SDS011;65952;51.440;-2.054;2023-11-18T09:23:32;4.35;;;2.17;;
77022;SDS011;65952;51.440;-2.054;2023-11-18T09:26:03;4.05;;;2.35;;
77022;SDS011;65952;51.440;-2.054;2023-11-18T09:28:32;6.28;;;2.28;;
77022;SDS011;65952;51.440;-2.054;2023-11-18T09:31:00;5.97;;;2.17;;
77022;SDS011;65952;51.440;-2.054;2023-11-18T09:33:28;4.72;;;2.10;;
77022;SDS011;65952;51.440;-2.054;2023-11-18T09:35:57;5.53;;;1.90;;
77022;SDS011;65952;51.440;-2.054;2023-11-18T09:38:33;5.03;;;1.90;;
77022;SDS011;65952;51.440;-2.054;2023-11-18T09:41:01;4.40;;;2.00;;
77022;SDS011;65952;51.440;-2.054;2023-11-18T09:43:32;3.40;;;2.00;;
77022;SDS011;65952;51.440;-2.054;2023-11-18T09:46:04;5.40;;;1.83;;
77022;SDS011;65952;51.440;-2.054;2023-11-18T09:51:21;4.28;;;1.90;;
77022;SDS011;65952;51.440;-2.054;2023-11-18T09:53:49;3.53;;;1.80;;
77022;SDS011;65952;51.440;-2.054;2023-11-18T09:56:18;4.00;;;1.80;;
77022;SDS011;65952;51.440;-2.054;2023-11-18T09:59:36;4.82;;;1.80;;
77022;SDS011;65952;51.440;-2.054;2023-11-18T10:01:44;4.65;;;1.70;;
77022;SDS011;65952;51.440;-2.054;2023-11-18T10:04:18;4.20;;;1.70;;
77022;SDS011;65952;51.440;-2.054;2023-11-18T10:06:45;5.22;;;1.83;;
77022;SDS011;65952;51.440;-2.054;2023-11-18T10:09:12;4.05;;;1.70;;
77022;SDS011;65952;51.440;-2.054;2023-11-18T10:11:44;3.60;;;1.70;;
77022;SDS011;65952;51.440;-2.054;2023-11-18T10:14:15;2.95;;;1.67;;
77022;SDS011;65952;51.440;-2.054;2023-11-18T10:16:41;3.28;;;1.50;;
77022;SDS011;65952;51.440;-2.054;2023-11-18T10:19:11;2.83;;;1.70;;
77022;SDS011;65952;51.440;-2.054;2023-11-18T10:21:37;3.10;;;1.80;;
77022;SDS011;65952;51.440;-2.054;2023-11-18T10:24:06;2.83;;;1.55;;
77022;SDS011;65952;51.440;-2.054;2023-11-18T10:26:45;2.78;;;1.52;;
77022;SDS011;65952;51.440;-2.054;2023-11-18T10:29:20;3.58;;;1.60;;
77022;SDS011;65952;51.440;-2.054;2023-11-18T10:31:46;2.67;;;1.50;;
77022;SDS011;65952;51.440;-2.054;2023-11-18T10:34:12;3.80;;;1.70;;
77022;SDS011;65952;51.440;-2.054;2023-11-18T10:36:40;2.80;;;1.55;;
77022;SDS011;65952;51.440;-2.054;2023-11-18T10:39:10;3.83;;;1.70;;
77022;SDS011;65952;51.440;-2.054;2023-11-18T10:41:41;2.30;;;1.50;;
77022;SDS011;65952;51.440;-2.054;2023-11-18T10:44:08;3.17;;;1.40;;
77022;SDS011;65952;51.440;-2.054;2023-11-18T10:46:41;2.75;;;1.67;;
77022;SDS011;65952;51.440;-2.054;2023-11-18T10:49:15;4.35;;;1.60;;
77022;SDS011;65952;51.440;-2.054;2023-11-18T10:51:42;2.88;;;1.60;;
77022;SDS011;65952;51.440;-2.054;2023-11-18T10:54:12;3.53;;;1.77;;
77022;SDS011;65952;51.440;-2.054;2023-11-18T10:56:49;2.50;;;1.50;;
77022;SDS011;65952;51.440;-2.054;2023-11-18T10:59:15;3.10;;;1.60;;
77022;SDS011;65952;51.440;-2.054;2023-11-18T11:01:44;3.22;;;1.60;;
77022;SDS011;65952;51.440;-2.054;2023-11-18T11:04:10;2.38;;;1.50;;
77022;SDS011;65952;51.440;-2.054;2023-11-18T11:06:46;3.38;;;1.70;;
77022;SDS011;65952;51.440;-2.054;2023-11-18T11:09:19;3.97;;;1.70;;
77022;SDS011;65952;51.440;-2.054;2023-11-18T11:12:02;3.55;;;1.60;;
77022;SDS011;65952;51.440;-2.054;2023-11-18T11:14:35;5.68;;;1.60;;
77022;SDS011;65952;51.440;-2.054;2023-11-18T11:17:07;3.20;;;1.58;;
77022;SDS011;65952;51.440;-2.054;2023-11-18T11:19:55;3.50;;;1.50;;
77022;SDS011;65952;51.440;-2.054;2023-11-18T11:25:25;2.28;;;1.48;;
77022;SDS011;65952;51.440;-2.054;2023-11-18T11:28:09;3.45;;;1.50;;
77022;SDS011;65952;51.440;-2.054;2023-11-18T11:30:58;2.88;;;1.60;;
77022;SDS011;65952;51.440;-2.054;2023-11-18T11:34:18;4.22;;;1.63;;
77022;SDS011;65952;51.440;-2.054;2023-11-18T11:36:37;3.15;;;1.50;;
77022;SDS011;65952;51.440;-2.054;2023-11-18T11:39:08;2.47;;;1.42;;
77022;SDS011;65952;51.440;-2.054;2023-11-18T11:44:10;4.10;;;1.60;;
77022;SDS011;65952;51.440;-2.054;2023-11-18T11:46:37;3.80;;;1.70;;
77022;SDS011;65952;51.440;-2.054;2023-11-18T11:49:06;3.65;;;1.70;;
77022;SDS011;65952;51.440;-2.054;2023-11-18T11:51:47;3.92;;;1.73;;
77022;SDS011;65952;51.440;-2.054;2023-11-18T11:54:25;3.42;;;1.67;;
77022;SDS011;65952;51.440;-2.054;2023-11-18T11:56:56;5.68;;;1.80;;
77022;SDS011;65952;51.440;-2.054;2023-11-18T12:02:09;2.92;;;1.60;;
77022;SDS011;65952;51.440;-2.054;2023-11-18T12:04:43;3.08;;;1.63;;
77022;SDS011;65952;51.440;-2.054;2023-11-18T12:07:09;4.95;;;1.70;;
77022;SDS011;65952;51.440;-2.054;2023-11-18T12:09:35;5.40;;;1.80;;
77022;SDS011;65952;51.440;-2.054;2023-11-18T12:12:04;3.80;;;1.80;;
77022;SDS011;65952;51.440;-2.054;2023-11-18T12:14:49;4.13;;;1.70;;
77022;SDS011;65952;51.440;-2.054;2023-11-18T12:17:23;4.15;;;1.90;;
77022;SDS011;65952;51.440;-2.054;2023-11-18T12:19:50;5.70;;;2.00;;
77022;SDS011;65952;51.440;-2.054;2023-11-18T12:22:23;4.20;;;1.80;;
77022;SDS011;65952;51.440;-2.054;2023-11-18T12:27:42;5.80;;;2.03;;
77022;SDS011;65952;51.440;-2.054;2023-11-18T12:36:27;6.85;;;1.98;;
77022;SDS011;65952;51.440;-2.054;2023-11-18T12:41:37;8.93;;;2.17;;
77022;SDS011;65952;51.440;-2.054;2023-11-18T12:44:21;6.78;;;2.20;;
77022;SDS011;65952;51.440;-2.054;2023-11-18T12:46:59;8.35;;;2.22;;
77022;SDS011;65952;51.440;-2.054;2023-11-18T12:49:39;8.05;;;2.35;;
77022;SDS011;65952;51.440;-2.054;2023-11-18T12:52:08;9.52;;;2.40;;
77022;SDS011;65952;51.440;-2.054;2023-11-18T12:54:35;6.68;;;2.20;;
77022;SDS011;65952;51.440;-2.054;2023-11-18T12:57:08;7.68;;;2.80;;
77022;SDS011;65952;51.440;-2.054;2023-11-18T12:59:35;8.32;;;2.60;;
77022;SDS011;65952;51.440;-2.054;2023-11-18T13:02:01;9.32;;;2.90;;
77022;SDS011;65952;51.440;-2.054;2023-11-18T13:04:30;7.25;;;2.63;;
77022;SDS011;65952;51.440;-2.054;2023-11-18T13:06:55;7.70;;;2.78;;
77022;SDS011;65952;51.440;-2.054;2023-11-18T13:09:23;8.82;;;3.15;;
77022;SDS011;65952;51.440;-2.054;2023-11-18T13:11:53;8.48;;;2.65;;
77022;SDS011;65952;51.440;-2.054;2023-11-18T13:14:21;10.45;;;2.70;;
77022;SDS011;65952;51.440;-2.054;2023-11-18T13:16:55;9.60;;;2.90;;
77022;SDS011;65952;51.440;-2.054;2023-11-18T13:19:25;10.73;;;3.67;;
77022;SDS011;65952;51.440;-2.054;2023-11-18T13:21:57;8.75;;;2.75;;
77022;SDS011;65952;51.440;-2.054;2023-11-18T13:24:24;10.10;;;3.50;;
77022;SDS011;65952;51.440;-2.054;2023-11-18T13:26:55;10.20;;;3.28;;
77022;SDS011;65952;51.440;-2.054;2023-11-18T13:29:25;12.45;;;3.28;;
77022;SDS011;65952;51.440;-2.054;2023-11-18T13:31:50;9.68;;;3.03;;
77022;SDS011;65952;51.440;-2.054;2023-11-18T13:34:19;11.95;;;3.83;;
77022;SDS011;65952;51.440;-2.054;2023-11-18T13:36:48;11.10;;;3.28;;
77022;SDS011;65952;51.440;-2.054;2023-11-18T13:39:18;12.45;;;3.13;;
77022;SDS011;65952;51.440;-2.054;2023-11-18T13:41:45;8.95;;;3.45;;
77022;SDS011;65952;51.440;-2.054;2023-11-18T13:44:31;9.32;;;2.95;;
77022;SDS011;65952;51.440;-2.054;2023-11-18T13:46:59;11.35;;;3.38;;
77022;SDS011;65952;51.440;-2.054;2023-11-18T13:49:28;8.60;;;3.53;;
77022;SDS011;65952;51.440;-2.054;2023-11-18T13:54:23;9.38;;;3.30;;
77022;SDS011;65952;51.440;-2.054;2023-11-18T13:56:50;8.55;;;3.40;;
77022;SDS011;65952;51.440;-2.054;2023-11-18T13:59:17;11.32;;;3.58;;
77022;SDS011;65952;51.440;-2.054;2023-11-18T14:01:44;8.85;;;3.00;;
77022;SDS011;65952;51.440;-2.054;2023-11-18T14:04:11;10.38;;;3.60;;
77022;SDS011;65952;51.440;-2.054;2023-11-18T14:06:36;7.97;;;3.67;;
77022;SDS011;65952;51.440;-2.054;2023-11-18T14:09:02;8.95;;;2.95;;
77022;SDS011;65952;51.440;-2.054;2023-11-18T14:11:31;6.50;;;2.72;;
77022;SDS011;65952;51.440;-2.054;2023-11-18T14:13:57;8.32;;;2.80;;
77022;SDS011;65952;51.440;-2.054;2023-11-18T14:16:23;7.05;;;2.67;;
77022;SDS011;65952;51.440;-2.054;2023-11-18T14:18:49;11.05;;;3.03;;
77022;SDS011;65952;51.440;-2.054;2023-11-18T14:21:14;9.65;;;2.72;;
77022;SDS011;65952;51.440;-2.054;2023-11-18T14:23:40;7.88;;;2.75;;
77022;SDS011;65952;51.440;-2.054;2023-11-18T14:26:06;6.25;;;2.60;;
77022;SDS011;65952;51.440;-2.054;2023-11-18T14:28:35;8.07;;;3.00;;
77022;SDS011;65952;51.440;-2.054;2023-11-18T14:31:01;7.95;;;3.20;;
77022;SDS011;65952;51.440;-2.054;2023-11-18T14:33:29;6.85;;;2.88;;
77022;SDS011;65952;51.440;-2.054;2023-11-18T14:35:58;9.82;;;2.75;;
77022;SDS011;65952;51.440;-2.054;2023-11-18T14:38:25;9.15;;;3.10;;
77022;SDS011;65952;51.440;-2.054;2023-11-18T14:40:51;11.13;;;2.90;;
77022;SDS011;65952;51.440;-2.054;2023-11-18T14:43:18;10.20;;;3.25;;
77022;SDS011;65952;51.440;-2.054;2023-11-18T14:45:44;13.77;;;3.95;;
77022;SDS011;65952;51.440;-2.054;2023-11-18T14:48:09;8.50;;;3.30;;
77022;SDS011;65952;51.440;-2.054;2023-11-18T14:50:35;9.02;;;3.58;;
77022;SDS011;65952;51.440;-2.054;2023-11-18T14:53:00;13.45;;;3.55;;
77022;SDS011;65952;51.440;-2.054;2023-11-18T14:55:29;10.73;;;3.88;;
77022;SDS011;65952;51.440;-2.054;2023-11-18T14:57:55;12.38;;;4.00;;
77022;SDS011;65952;51.440;-2.054;2023-11-18T15:00:21;10.25;;;4.38;;
77022;SDS011;65952;51.440;-2.054;2023-11-18T15:02:48;13.43;;;4.95;;
77022;SDS011;65952;51.440;-2.054;2023-11-18T15:05:15;12.18;;;5.03;;
77022;SDS011;65952;51.440;-2.054;2023-11-18T15:07:43;13.38;;;5.22;;